createdAt,value
2018-04-07T00:00:06.480Z,3.44
2018-04-07T00:01:11.315Z,3.38
2018-04-07T00:02:06.316Z,3.44
2018-04-07T00:03:10.568Z,3.44
2018-04-07T00:04:06.377Z,3.44
2018-04-07T00:05:05.704Z,3.44
2018-04-07T00:06:06.131Z,3.38
2018-04-07T00:07:06.061Z,3.38
2018-04-07T00:08:06.477Z,3.44
2018-04-07T00:09:06.616Z,3.38
2018-04-07T00:10:06.642Z,3.44
2018-04-07T00:11:06.345Z,3.38
2018-04-07T00:12:06.357Z,3.38
2018-04-07T00:13:06.348Z,3.38
2018-04-07T00:14:06.419Z,3.38
2018-04-07T00:15:06.038Z,3.38
2018-04-07T00:16:11.469Z,3.38
2018-04-07T00:17:06.498Z,3.38
2018-04-07T00:18:06.631Z,3.38
2018-04-07T00:19:05.667Z,3.38
2018-04-07T00:20:06.008Z,3.38
2018-04-07T00:21:06.655Z,3.31
2018-04-07T00:22:06.549Z,3.31
2018-04-07T00:23:06.553Z,3.31
2018-04-07T00:24:06.605Z,3.31
2018-04-07T00:25:06.026Z,3.31
2018-04-07T00:26:06.417Z,3.31
2018-04-07T00:27:05.687Z,3.31
2018-04-07T00:28:06.463Z,3.31
2018-04-07T00:29:06.534Z,3.31
2018-04-07T00:30:06.649Z,3.25
2018-04-07T00:31:05.984Z,3.25
2018-04-07T00:32:06.876Z,3.25
2018-04-07T00:33:06.358Z,3.25
2018-04-07T00:34:06.040Z,3.25
2018-04-07T00:35:05.940Z,3.25
2018-04-07T00:36:11.404Z,3.25
2018-04-07T00:37:05.922Z,3.25
2018-04-07T00:38:06.379Z,3.25
2018-04-07T00:39:07.010Z,3.25
2018-04-07T00:40:06.041Z,3.25
2018-04-07T00:41:06.561Z,3.25
2018-04-07T00:42:06.414Z,3.19
2018-04-07T00:43:06.488Z,3.19
2018-04-07T00:44:10.706Z,3.19
2018-04-07T00:45:06.866Z,3.12
2018-04-07T00:46:06.075Z,3.12
2018-04-07T00:47:06.423Z,3.12
2018-04-07T00:48:05.991Z,3.12
2018-04-07T00:49:06.416Z,3.12
2018-04-07T00:50:06.689Z,3.12
2018-04-07T00:51:06.383Z,3.12
2018-04-07T00:52:06.489Z,3.06
2018-04-07T00:53:06.423Z,3.06
2018-04-07T00:54:05.666Z,3.06
2018-04-07T00:55:06.519Z,3.06
2018-04-07T00:56:06.082Z,3.06
2018-04-07T00:57:05.626Z,3.00
2018-04-07T00:58:10.914Z,3.00
2018-04-07T00:59:06.510Z,3.00
2018-04-07T01:00:06.054Z,3.06
2018-04-07T01:01:06.500Z,3.06
2018-04-07T01:02:06.053Z,3.00
2018-04-07T01:03:06.545Z,3.00
2018-04-07T01:04:06.484Z,3.00
2018-04-07T01:05:06.067Z,3.00
2018-04-07T01:06:06.605Z,2.94
2018-04-07T01:07:11.205Z,2.94
2018-04-07T01:08:06.490Z,2.94
2018-04-07T01:09:06.009Z,2.88
2018-04-07T01:10:06.090Z,2.88
2018-04-07T01:11:06.400Z,2.88
2018-04-07T01:12:07.246Z,2.88
2018-04-07T01:13:06.472Z,2.88
2018-04-07T01:14:06.377Z,2.88
2018-04-07T01:15:05.941Z,2.81
2018-04-07T01:16:06.338Z,2.88
2018-04-07T01:17:06.721Z,2.88
2018-04-07T01:18:06.454Z,2.88
2018-04-07T01:19:06.379Z,2.81
2018-04-07T01:20:06.451Z,2.81
2018-04-07T01:21:06.467Z,2.81
2018-04-07T01:22:06.004Z,2.75
2018-04-07T01:23:06.016Z,2.75
2018-04-07T01:24:06.397Z,2.81
2018-04-07T01:25:06.360Z,2.75
2018-04-07T01:26:06.089Z,2.75
2018-04-07T01:27:06.389Z,2.75
2018-04-07T01:28:06.464Z,2.69
2018-04-07T01:29:06.403Z,2.69
2018-04-07T01:30:06.012Z,2.69
2018-04-07T01:31:06.403Z,2.62
2018-04-07T01:32:10.958Z,2.62
2018-04-07T01:33:05.715Z,2.62
2018-04-07T01:34:06.575Z,2.62
2018-04-07T01:35:06.392Z,2.62
2018-04-07T01:36:07.334Z,2.56
2018-04-07T01:37:06.638Z,2.56
2018-04-07T01:38:06.432Z,2.56
2018-04-07T01:39:06.095Z,2.56
2018-04-07T01:40:06.629Z,2.56
2018-04-07T01:41:05.695Z,2.56
2018-04-07T01:42:06.138Z,2.56
2018-04-07T01:43:06.080Z,2.50
2018-04-07T01:44:06.066Z,2.50
2018-04-07T01:45:06.857Z,2.50
2018-04-07T01:46:06.499Z,2.50
2018-04-07T01:47:16.126Z,2.44
2018-04-07T01:48:06.100Z,2.44
2018-04-07T01:49:05.713Z,2.44
2018-04-07T01:50:06.475Z,2.44
2018-04-07T01:51:06.528Z,2.44
2018-04-07T01:52:06.586Z,2.44
2018-04-07T01:53:06.476Z,2.44
2018-04-07T01:54:06.468Z,2.38
2018-04-07T01:55:06.562Z,2.38
2018-04-07T01:56:06.372Z,2.38
2018-04-07T01:57:06.434Z,2.31
2018-04-07T01:58:06.625Z,2.31
2018-04-07T01:59:06.468Z,2.31
2018-04-07T02:00:06.391Z,2.31
2018-04-07T02:01:06.449Z,2.31
2018-04-07T02:02:06.018Z,2.25
2018-04-07T02:03:07.434Z,2.25
2018-04-07T02:04:06.560Z,2.25
2018-04-07T02:05:06.040Z,2.19
2018-04-07T02:06:06.485Z,2.19
2018-04-07T02:07:06.465Z,2.19
2018-04-07T02:08:06.726Z,2.19
2018-04-07T02:09:06.608Z,2.12
2018-04-07T02:10:06.506Z,2.12
2018-04-07T02:11:06.661Z,2.12
2018-04-07T02:12:06.462Z,2.12
2018-04-07T02:13:06.121Z,2.12
2018-04-07T02:14:06.618Z,2.12
2018-04-07T02:15:06.524Z,2.12
2018-04-07T02:16:06.538Z,2.06
2018-04-07T02:17:06.453Z,2.06
2018-04-07T02:18:06.750Z,2.06
2018-04-07T02:19:06.074Z,2.06
2018-04-07T02:20:06.097Z,2.06
2018-04-07T02:21:06.068Z,2.00
2018-04-07T02:22:06.673Z,2.00
2018-04-07T02:23:06.599Z,2.00
2018-04-07T02:24:06.516Z,2.00
2018-04-07T02:25:07.096Z,1.94
2018-04-07T02:26:06.383Z,2.00
2018-04-07T02:27:06.179Z,1.94
2018-04-07T02:28:11.244Z,1.94
2018-04-07T02:29:06.051Z,1.94
2018-04-07T02:30:06.505Z,1.88
2018-04-07T02:31:06.507Z,1.94
2018-04-07T02:32:06.069Z,1.88
2018-04-07T02:33:05.820Z,1.88
2018-04-07T02:34:06.419Z,1.88
2018-04-07T02:35:05.781Z,1.88
2018-04-07T02:36:06.096Z,1.88
2018-04-07T02:37:06.425Z,1.88
2018-04-07T02:38:10.722Z,1.88
2018-04-07T02:39:06.515Z,1.88
2018-04-07T02:40:06.542Z,1.88
2018-04-07T02:41:05.781Z,1.88
2018-04-07T02:42:06.476Z,1.88
2018-04-07T02:43:06.554Z,1.88
2018-04-07T02:44:06.118Z,1.88
2018-04-07T02:45:05.800Z,1.88
2018-04-07T02:46:06.173Z,1.88
2018-04-07T02:47:06.711Z,1.88
2018-04-07T02:48:06.257Z,1.88
2018-04-07T02:49:05.703Z,1.88
2018-04-07T02:50:06.576Z,1.88
2018-04-07T02:51:06.102Z,1.88
2018-04-07T02:52:05.734Z,1.88
2018-04-07T02:53:06.983Z,1.88
2018-04-07T02:54:07.033Z,1.81
2018-04-07T02:55:06.773Z,1.81
2018-04-07T02:56:06.533Z,1.81
2018-04-07T02:57:06.440Z,1.81
2018-04-07T02:58:06.646Z,1.81
2018-04-07T02:59:06.474Z,1.81
2018-04-07T03:00:06.141Z,1.88
2018-04-07T03:01:11.082Z,1.88
2018-04-07T03:02:06.588Z,1.88
2018-04-07T03:03:06.228Z,1.94
2018-04-07T03:04:05.923Z,1.94
2018-04-07T03:05:06.230Z,1.94
2018-04-07T03:06:06.125Z,1.94
2018-04-07T03:07:06.531Z,1.94
2018-04-07T03:08:06.252Z,1.94
2018-04-07T03:09:06.602Z,2.00
2018-04-07T03:10:06.117Z,2.06
2018-04-07T03:11:06.095Z,2.06
2018-04-07T03:12:06.751Z,2.06
2018-04-07T03:13:06.154Z,2.06
2018-04-07T03:14:06.192Z,2.06
2018-04-07T03:15:06.209Z,2.12
2018-04-07T03:16:06.187Z,2.12
2018-04-07T03:17:05.744Z,2.12
2018-04-07T03:18:06.541Z,2.19
2018-04-07T03:19:06.644Z,2.19
2018-04-07T03:20:10.991Z,2.25
2018-04-07T03:21:06.103Z,2.19
2018-04-07T03:22:06.249Z,2.19
2018-04-07T03:23:05.735Z,2.19
2018-04-07T03:24:06.453Z,2.19
2018-04-07T03:25:06.531Z,2.25
2018-04-07T03:26:06.476Z,2.25
2018-04-07T03:27:06.512Z,2.25
2018-04-07T03:28:06.586Z,2.25
2018-04-07T03:29:11.151Z,2.25
2018-04-07T03:30:06.726Z,2.25
2018-04-07T03:31:06.455Z,2.31
2018-04-07T03:32:06.460Z,2.25
2018-04-07T03:33:06.228Z,2.25
2018-04-07T03:34:06.705Z,2.31
2018-04-07T03:35:06.756Z,2.31
2018-04-07T03:36:05.719Z,2.31
2018-04-07T03:37:06.119Z,2.38
2018-04-07T03:38:05.873Z,2.31
2018-04-07T03:39:06.567Z,2.38
2018-04-07T03:40:06.637Z,2.31
2018-04-07T03:41:06.267Z,2.38
2018-04-07T03:42:06.596Z,2.38
2018-04-07T03:43:05.735Z,2.44
2018-04-07T03:44:06.724Z,2.44
2018-04-07T03:45:06.313Z,2.44
2018-04-07T03:46:06.141Z,2.44
2018-04-07T03:47:06.270Z,2.50
2018-04-07T03:48:06.264Z,2.50
2018-04-07T03:49:06.614Z,2.44
2018-04-07T03:50:06.140Z,2.50
2018-04-07T03:51:05.778Z,2.50
2018-04-07T03:52:06.230Z,2.50
2018-04-07T03:53:05.924Z,2.50
2018-04-07T03:54:06.577Z,2.50
2018-04-07T03:55:06.210Z,2.50
2018-04-07T03:56:11.489Z,2.56
2018-04-07T03:57:06.453Z,2.56
2018-04-07T03:58:07.402Z,2.56
2018-04-07T03:59:06.544Z,2.56
2018-04-07T04:00:06.166Z,2.56
2018-04-07T04:01:06.217Z,2.56
2018-04-07T04:02:06.535Z,2.56
2018-04-07T04:03:06.182Z,2.56
2018-04-07T04:04:06.550Z,2.62
2018-04-07T04:05:06.118Z,2.62
2018-04-07T04:06:05.798Z,2.62
2018-04-07T04:07:06.639Z,2.62
2018-04-07T04:08:06.258Z,2.62
2018-04-07T04:09:06.601Z,2.62
2018-04-07T04:10:07.009Z,2.62
2018-04-07T04:11:06.564Z,2.62
2018-04-07T04:12:06.217Z,2.56
2018-04-07T04:13:06.264Z,2.56
2018-04-07T04:14:06.174Z,2.56
2018-04-07T04:15:05.801Z,2.56
2018-04-07T04:16:06.302Z,2.56
2018-04-07T04:17:06.777Z,2.56
2018-04-07T04:18:07.021Z,2.56
2018-04-07T04:19:06.569Z,2.62
2018-04-07T04:20:06.189Z,2.56
2018-04-07T04:21:06.575Z,2.56
2018-04-07T04:22:06.589Z,2.56
2018-04-07T04:23:05.858Z,2.56
2018-04-07T04:24:07.514Z,2.56
2018-04-07T04:25:06.361Z,2.56
2018-04-07T04:26:10.962Z,2.56
2018-04-07T04:27:07.253Z,2.56
2018-04-07T04:28:06.284Z,2.50
2018-04-07T04:29:05.899Z,2.50
2018-04-07T04:30:06.248Z,2.50
2018-04-07T04:31:06.217Z,2.50
2018-04-07T04:32:06.287Z,2.56
2018-04-07T04:33:06.179Z,2.56
2018-04-07T04:34:05.838Z,2.56
2018-04-07T04:35:05.858Z,2.56
2018-04-07T04:36:05.908Z,2.56
2018-04-07T04:37:06.712Z,2.50
2018-04-07T04:38:06.600Z,2.56
2018-04-07T04:39:06.589Z,2.69
2018-04-07T04:40:06.163Z,2.75
2018-04-07T04:41:05.917Z,3.00
2018-04-07T04:42:11.197Z,3.06
2018-04-07T04:43:06.221Z,3.25
2018-04-07T04:44:08.050Z,3.38
2018-04-07T04:45:06.795Z,3.50
2018-04-07T04:46:06.908Z,3.62
2018-04-07T04:47:06.306Z,3.75
2018-04-07T04:48:06.200Z,3.62
2018-04-07T04:49:11.500Z,3.88
2018-04-07T04:50:06.394Z,3.75
2018-04-07T04:51:05.898Z,3.81
2018-04-07T04:52:06.210Z,4.00
2018-04-07T04:53:06.140Z,4.00
2018-04-07T04:54:06.529Z,4.12
2018-04-07T04:55:06.834Z,4.12
2018-04-07T04:56:05.879Z,4.25
2018-04-07T04:57:06.566Z,4.25
2018-04-07T04:58:07.948Z,4.38
2018-04-07T04:59:05.918Z,4.56
2018-04-07T05:00:05.934Z,4.56
2018-04-07T05:01:06.793Z,4.56
2018-04-07T05:02:12.435Z,4.56
2018-04-07T05:03:06.151Z,4.69
2018-04-07T05:04:06.623Z,4.56
2018-04-07T05:05:06.716Z,4.56
2018-04-07T05:06:06.568Z,4.56
2018-04-07T05:07:06.164Z,4.56
2018-04-07T05:08:06.294Z,4.62
2018-04-07T05:09:06.311Z,4.75
2018-04-07T05:10:06.737Z,5.00
2018-04-07T05:11:05.903Z,5.25
2018-04-07T05:12:06.168Z,5.62
2018-04-07T05:13:10.896Z,6.06
2018-04-07T05:14:06.225Z,6.31
2018-04-07T05:15:05.970Z,6.38
2018-04-07T05:16:06.692Z,6.69
2018-04-07T05:17:06.651Z,6.88
2018-04-07T05:18:06.761Z,7.06
2018-04-07T05:19:06.188Z,7.38
2018-04-07T05:20:06.181Z,8.12
2018-04-07T05:21:11.237Z,8.62
2018-04-07T05:22:06.204Z,8.88
2018-04-07T05:23:06.202Z,8.88
2018-04-07T05:24:07.602Z,9.00
2018-04-07T05:25:06.612Z,9.38
2018-04-07T05:26:06.597Z,9.69
2018-04-07T05:27:06.006Z,10.19
2018-04-07T05:28:06.640Z,10.62
2018-04-07T05:29:06.234Z,11.19
2018-04-07T05:30:06.637Z,11.88
2018-04-07T05:31:10.754Z,11.69
2018-04-07T05:32:06.606Z,11.69
2018-04-07T05:33:07.049Z,11.12
2018-04-07T05:34:05.970Z,10.44
2018-04-07T05:35:11.286Z,10.12
2018-04-07T05:36:06.735Z,10.50
2018-04-07T05:37:06.833Z,11.00
2018-04-07T05:38:06.652Z,11.19
2018-04-07T05:39:06.218Z,11.88
2018-04-07T05:40:06.024Z,12.31
2018-04-07T05:41:06.656Z,12.69
2018-04-07T05:42:06.693Z,12.81
2018-04-07T05:43:05.900Z,13.06
2018-04-07T05:44:06.992Z,13.31
2018-04-07T05:45:06.730Z,13.50
2018-04-07T05:46:06.345Z,14.00
2018-04-07T05:47:06.961Z,14.31
2018-04-07T05:48:07.604Z,14.75
2018-04-07T05:49:06.203Z,15.00
2018-04-07T05:50:06.871Z,15.62
2018-04-07T05:51:06.278Z,16.25
2018-04-07T05:52:06.714Z,16.62
2018-04-07T05:53:06.356Z,16.94
2018-04-07T05:54:06.702Z,16.94
2018-04-07T05:55:05.909Z,17.38
2018-04-07T05:56:05.945Z,17.62
2018-04-07T05:57:06.308Z,17.69
2018-04-07T05:58:06.360Z,18.06
2018-04-07T05:59:06.737Z,18.38
2018-04-07T06:00:06.282Z,18.56
2018-04-07T06:01:06.263Z,18.56
2018-04-07T06:02:06.624Z,18.50
2018-04-07T06:03:06.364Z,18.44
2018-04-07T06:04:05.937Z,18.31
2018-04-07T06:05:05.948Z,18.06
2018-04-07T06:06:06.804Z,17.56
2018-04-07T06:07:05.931Z,17.25
2018-04-07T06:08:06.876Z,17.19
2018-04-07T06:09:05.978Z,16.62
2018-04-07T06:10:06.231Z,16.44
2018-04-07T06:11:06.265Z,16.31
2018-04-07T06:12:06.281Z,16.19
2018-04-07T06:13:06.289Z,16.25
2018-04-07T06:14:06.290Z,16.00
2018-04-07T06:15:06.705Z,15.81
2018-04-07T06:16:05.899Z,15.81
2018-04-07T06:17:06.635Z,15.81
2018-04-07T06:18:06.354Z,15.88
2018-04-07T06:19:07.080Z,15.94
2018-04-07T06:20:06.337Z,15.69
2018-04-07T06:21:06.702Z,15.69
2018-04-07T06:22:11.292Z,15.62
2018-04-07T06:23:06.318Z,15.62
2018-04-07T06:24:06.746Z,15.75
2018-04-07T06:25:05.962Z,15.75
2018-04-07T06:26:10.905Z,15.88
2018-04-07T06:27:05.918Z,15.94
2018-04-07T06:28:11.485Z,16.00
2018-04-07T06:29:06.313Z,15.94
2018-04-07T06:30:11.447Z,16.06
2018-04-07T06:31:10.571Z,16.00
2018-04-07T06:32:07.177Z,15.94
2018-04-07T06:33:06.817Z,15.81
2018-04-07T06:34:06.756Z,15.75
2018-04-07T06:35:06.359Z,15.75
2018-04-07T06:36:05.877Z,15.75
2018-04-07T06:37:06.733Z,15.69
2018-04-07T06:38:05.940Z,15.75
2018-04-07T06:39:05.990Z,15.62
2018-04-07T06:40:06.393Z,15.75
2018-04-07T06:41:06.630Z,15.81
2018-04-07T06:42:05.994Z,15.88
2018-04-07T06:43:05.894Z,15.94
2018-04-07T06:44:05.998Z,15.94
2018-04-07T06:45:06.302Z,16.00
2018-04-07T06:46:06.026Z,16.12
2018-04-07T06:47:06.416Z,16.25
2018-04-07T06:48:06.429Z,16.19
2018-04-07T06:49:06.417Z,16.25
2018-04-07T06:50:11.351Z,16.25
2018-04-07T06:51:06.313Z,16.19
2018-04-07T06:52:10.820Z,16.12
2018-04-07T06:53:06.450Z,16.06
2018-04-07T06:54:06.774Z,16.06
2018-04-07T06:55:06.044Z,16.06
2018-04-07T06:56:06.368Z,16.00
2018-04-07T06:57:06.772Z,15.88
2018-04-07T06:58:06.246Z,15.88
2018-04-07T06:59:06.726Z,16.00
2018-04-07T07:00:06.725Z,16.06
2018-04-07T07:01:06.709Z,16.06
2018-04-07T07:02:06.728Z,16.19
2018-04-07T07:03:06.766Z,16.31
2018-04-07T07:04:11.623Z,16.50
2018-04-07T07:05:10.650Z,16.62
2018-04-07T07:06:06.047Z,16.75
2018-04-07T07:07:06.370Z,16.75
2018-04-07T07:08:06.346Z,17.00
2018-04-07T07:09:06.695Z,17.00
2018-04-07T07:10:11.555Z,16.94
2018-04-07T07:11:06.394Z,16.94
2018-04-07T07:12:06.763Z,16.88
2018-04-07T07:13:06.341Z,16.81
2018-04-07T07:14:06.343Z,16.88
2018-04-07T07:15:11.353Z,16.81
2018-04-07T07:16:06.272Z,16.75
2018-04-07T07:17:06.028Z,16.75
2018-04-07T07:18:06.346Z,16.75
2018-04-07T07:19:06.061Z,16.75
2018-04-07T07:20:06.438Z,16.81
2018-04-07T07:21:06.825Z,16.88
2018-04-07T07:22:06.447Z,16.88
2018-04-07T07:23:11.496Z,16.94
2018-04-07T07:24:06.730Z,16.88
2018-04-07T07:25:06.868Z,16.88
2018-04-07T07:26:06.767Z,16.88
2018-04-07T07:27:05.942Z,16.88
2018-04-07T07:28:06.893Z,16.94
2018-04-07T07:29:11.414Z,17.00
2018-04-07T07:30:06.390Z,17.25
2018-04-07T07:31:06.679Z,17.38
2018-04-07T07:32:05.685Z,17.50
2018-04-07T07:33:06.695Z,17.75
2018-04-07T07:34:06.353Z,17.75
2018-04-07T07:35:06.491Z,17.81
2018-04-07T07:36:06.469Z,17.69
2018-04-07T07:37:06.902Z,17.50
2018-04-07T07:38:06.364Z,17.44
2018-04-07T07:39:06.040Z,17.44
2018-04-07T07:40:06.044Z,17.44
2018-04-07T07:41:06.725Z,17.44
2018-04-07T07:42:06.405Z,17.44
2018-04-07T07:43:06.779Z,17.50
2018-04-07T07:44:06.032Z,17.56
2018-04-07T07:45:05.984Z,17.56
2018-04-07T07:46:06.005Z,17.50
2018-04-07T07:47:06.402Z,17.56
2018-04-07T07:48:06.122Z,17.62
2018-04-07T07:49:05.988Z,17.62
2018-04-07T07:50:06.420Z,17.69
2018-04-07T07:51:06.808Z,17.75
2018-04-07T07:52:06.951Z,17.69
2018-04-07T07:53:06.982Z,17.62
2018-04-07T07:54:06.016Z,17.62
2018-04-07T07:55:06.418Z,17.62
2018-04-07T07:56:06.317Z,17.62
2018-04-07T07:57:06.026Z,17.62
2018-04-07T07:58:06.814Z,17.62
2018-04-07T07:59:06.404Z,17.56
2018-04-07T08:00:06.760Z,17.62
2018-04-07T08:01:05.973Z,17.62
2018-04-07T08:02:06.055Z,17.69
2018-04-07T08:03:06.047Z,17.69
2018-04-07T08:04:05.727Z,17.69
2018-04-07T08:05:06.932Z,17.69
2018-04-07T08:06:10.808Z,17.69
2018-04-07T08:07:07.111Z,17.62
2018-04-07T08:08:06.426Z,17.62
2018-04-07T08:09:06.535Z,17.69
2018-04-07T08:10:05.927Z,17.69
2018-04-07T08:11:06.004Z,17.62
2018-04-07T08:12:06.050Z,17.69
2018-04-07T08:13:06.755Z,17.62
2018-04-07T08:14:05.658Z,17.56
2018-04-07T08:15:06.438Z,17.56
2018-04-07T08:16:06.883Z,17.62
2018-04-07T08:17:06.798Z,17.69
2018-04-07T08:18:06.062Z,17.62
2018-04-07T08:19:05.790Z,17.56
2018-04-07T08:20:06.856Z,17.62
2018-04-07T08:21:06.830Z,17.56
2018-04-07T08:22:07.261Z,17.50
2018-04-07T08:23:06.818Z,17.56
2018-04-07T08:24:06.752Z,17.62
2018-04-07T08:25:06.883Z,17.62
2018-04-07T08:26:07.060Z,17.62
2018-04-07T08:27:07.127Z,17.75
2018-04-07T08:28:06.429Z,17.81
2018-04-07T08:29:06.515Z,17.88
2018-04-07T08:30:06.051Z,17.88
2018-04-07T08:31:06.824Z,17.88
2018-04-07T08:32:06.436Z,17.81
2018-04-07T08:33:06.456Z,17.81
2018-04-07T08:34:06.356Z,17.81
2018-04-07T08:35:05.984Z,17.81
2018-04-07T08:36:06.886Z,17.75
2018-04-07T08:37:06.499Z,17.75
2018-04-07T08:38:05.719Z,17.75
2018-04-07T08:39:06.322Z,17.81
2018-04-07T08:40:05.711Z,17.75
2018-04-07T08:41:06.418Z,17.81
2018-04-07T08:42:06.724Z,17.75
2018-04-07T08:43:05.995Z,17.75
2018-04-07T08:44:06.400Z,17.69
2018-04-07T08:45:06.053Z,17.69
2018-04-07T08:46:06.909Z,17.75
2018-04-07T08:47:06.725Z,17.81
2018-04-07T08:48:05.675Z,17.81
2018-04-07T08:49:06.208Z,17.75
2018-04-07T08:50:05.754Z,17.75
2018-04-07T08:51:06.404Z,17.75
2018-04-07T08:52:06.088Z,17.69
2018-04-07T08:53:06.504Z,17.69
2018-04-07T08:54:06.463Z,17.69
2018-04-07T08:55:06.402Z,17.69
2018-04-07T08:56:06.540Z,17.75
2018-04-07T08:57:06.006Z,17.75
2018-04-07T08:58:05.713Z,17.88
2018-04-07T08:59:06.086Z,17.88
2018-04-07T09:00:06.692Z,17.88
2018-04-07T09:01:11.159Z,17.88
2018-04-07T09:02:05.999Z,17.81
2018-04-07T09:03:06.797Z,17.81
2018-04-07T09:04:06.906Z,17.69
2018-04-07T09:05:05.755Z,17.69
2018-04-07T09:06:05.779Z,17.62
2018-04-07T09:07:06.542Z,17.56
2018-04-07T09:08:06.458Z,17.50
2018-04-07T09:09:05.994Z,17.50
2018-04-07T09:10:06.496Z,17.44
2018-04-07T09:11:10.653Z,17.38
2018-04-07T09:12:06.097Z,17.38
2018-04-07T09:13:06.958Z,17.38
2018-04-07T09:14:11.160Z,17.38
2018-04-07T09:15:06.131Z,17.38
2018-04-07T09:16:06.531Z,17.44
2018-04-07T09:17:06.474Z,17.44
2018-04-07T09:18:06.062Z,17.44
2018-04-07T09:19:07.011Z,17.50
2018-04-07T09:20:06.166Z,17.50
2018-04-07T09:21:06.442Z,17.50
2018-04-07T09:22:06.174Z,17.50
2018-04-07T09:23:06.442Z,17.50
2018-04-07T09:24:06.073Z,17.50
2018-04-07T09:25:06.888Z,17.50
2018-04-07T09:26:05.851Z,17.56
2018-04-07T09:27:06.807Z,17.56
2018-04-07T09:28:06.144Z,17.56
2018-04-07T09:29:11.453Z,17.56
2018-04-07T09:30:06.628Z,17.56
2018-04-07T09:31:06.811Z,17.56
2018-04-07T09:32:06.958Z,17.56
2018-04-07T09:33:06.149Z,17.62
2018-04-07T09:34:06.482Z,17.62
2018-04-07T09:35:06.403Z,17.62
2018-04-07T09:36:06.538Z,17.62
2018-04-07T09:37:06.141Z,17.62
2018-04-07T09:38:06.445Z,17.62
2018-04-07T09:39:06.142Z,17.69
2018-04-07T09:40:06.463Z,17.69
2018-04-07T09:41:06.142Z,17.62
2018-04-07T09:42:06.432Z,17.62
2018-04-07T09:43:05.749Z,17.56
2018-04-07T09:44:06.831Z,17.56
2018-04-07T09:45:06.108Z,17.56
2018-04-07T09:46:05.800Z,17.56
2018-04-07T09:47:06.551Z,17.62
2018-04-07T09:48:11.285Z,17.56
2018-04-07T09:49:05.755Z,17.56
2018-04-07T09:50:06.684Z,17.62
2018-04-07T09:51:06.923Z,17.62
2018-04-07T09:52:06.236Z,17.62
2018-04-07T09:53:06.224Z,17.62
2018-04-07T09:54:06.540Z,17.56
2018-04-07T09:55:05.824Z,17.62
2018-04-07T09:56:11.536Z,17.62
2018-04-07T09:57:10.645Z,17.69
2018-04-07T09:58:06.057Z,17.69
2018-04-07T09:59:06.574Z,17.75
2018-04-07T10:00:11.113Z,17.75
2018-04-07T10:01:06.175Z,17.81
2018-04-07T10:02:06.555Z,17.81
2018-04-07T10:03:06.867Z,17.81
2018-04-07T10:04:06.546Z,17.88
2018-04-07T10:05:05.830Z,17.88
2018-04-07T10:06:06.581Z,17.88
2018-04-07T10:07:06.896Z,17.88
2018-04-07T10:08:11.236Z,17.94
2018-04-07T10:09:05.843Z,17.94
2018-04-07T10:10:06.417Z,17.88
2018-04-07T10:11:06.450Z,17.88
2018-04-07T10:12:05.776Z,17.88
2018-04-07T10:13:06.545Z,17.88
2018-04-07T10:14:06.592Z,17.94
2018-04-07T10:15:06.551Z,17.94
2018-04-07T10:16:06.628Z,18.00
2018-04-07T10:17:06.113Z,18.00
2018-04-07T10:18:06.066Z,18.06
2018-04-07T10:19:06.535Z,18.06
2018-04-07T10:20:06.214Z,18.12
2018-04-07T10:21:06.568Z,18.12
2018-04-07T10:22:07.435Z,18.19
2018-04-07T10:23:06.144Z,18.19
2018-04-07T10:24:06.624Z,18.25
2018-04-07T10:25:06.674Z,18.25
2018-04-07T10:26:06.514Z,18.25
2018-04-07T10:27:06.143Z,18.31
2018-04-07T10:28:06.549Z,18.38
2018-04-07T10:29:06.557Z,18.38
2018-04-07T10:30:06.140Z,18.38
2018-04-07T10:31:06.849Z,18.44
2018-04-07T10:32:06.139Z,18.44
2018-04-07T10:33:06.238Z,18.50
2018-04-07T10:34:06.235Z,18.50
2018-04-07T10:35:06.203Z,18.56
2018-04-07T10:36:06.939Z,18.56
2018-04-07T10:37:06.834Z,18.56
2018-04-07T10:38:05.845Z,18.62
2018-04-07T10:39:10.933Z,18.62
2018-04-07T10:40:06.504Z,18.69
2018-04-07T10:41:06.134Z,18.75
2018-04-07T10:42:05.895Z,18.75
2018-04-07T10:43:06.055Z,18.81
2018-04-07T10:44:06.603Z,18.88
2018-04-07T10:45:06.220Z,18.88
2018-04-07T10:46:06.092Z,18.94
2018-04-07T10:47:06.289Z,18.94
2018-04-07T10:48:06.581Z,19.00
2018-04-07T10:49:06.472Z,19.00
2018-04-07T10:50:06.316Z,19.00
2018-04-07T10:51:06.189Z,19.00
2018-04-07T10:52:10.802Z,19.00
2018-04-07T10:53:06.227Z,19.06
2018-04-07T10:54:05.738Z,19.06
2018-04-07T10:55:06.261Z,19.06
2018-04-07T10:56:11.580Z,19.12
2018-04-07T10:57:11.542Z,19.12
2018-04-07T10:58:06.537Z,19.19
2018-04-07T10:59:10.907Z,19.19
2018-04-07T11:00:06.444Z,19.25
2018-04-07T11:01:05.741Z,19.25
2018-04-07T11:02:06.247Z,19.25
2018-04-07T11:03:05.862Z,19.31
2018-04-07T11:04:10.761Z,19.31
2018-04-07T11:05:06.137Z,19.38
2018-04-07T11:06:06.577Z,19.44
2018-04-07T11:07:06.316Z,19.44
2018-04-07T11:08:06.191Z,19.50
2018-04-07T11:09:06.168Z,19.50
2018-04-07T11:10:06.621Z,19.56
2018-04-07T11:11:06.134Z,19.56
2018-04-07T11:12:06.553Z,19.56
2018-04-07T11:13:06.206Z,19.62
2018-04-07T11:14:06.170Z,19.62
2018-04-07T11:15:05.888Z,19.62
2018-04-07T11:16:06.158Z,19.69
2018-04-07T11:17:06.612Z,19.69
2018-04-07T11:18:05.853Z,19.75
2018-04-07T11:19:06.134Z,19.75
2018-04-07T11:20:07.067Z,19.75
2018-04-07T11:21:06.221Z,19.81
2018-04-07T11:22:06.854Z,19.88
2018-04-07T11:23:10.598Z,19.88
2018-04-07T11:24:06.507Z,19.94
2018-04-07T11:25:10.812Z,19.94
2018-04-07T11:26:05.794Z,20.00
2018-04-07T11:27:05.876Z,20.00
2018-04-07T11:28:06.487Z,20.06
2018-04-07T11:29:06.162Z,20.06
2018-04-07T11:30:06.603Z,20.06
2018-04-07T11:31:07.272Z,20.06
2018-04-07T11:32:06.615Z,20.12
2018-04-07T11:33:06.299Z,20.12
2018-04-07T11:34:06.630Z,20.19
2018-04-07T11:35:06.990Z,20.25
2018-04-07T11:36:06.339Z,20.25
2018-04-07T11:37:06.680Z,20.25
2018-04-07T11:38:06.613Z,20.31
2018-04-07T11:39:05.914Z,20.31
2018-04-07T11:40:05.903Z,20.31
2018-04-07T11:41:11.346Z,20.38
2018-04-07T11:42:06.195Z,20.38
2018-04-07T11:43:06.629Z,20.44
2018-04-07T11:44:10.886Z,20.44
2018-04-07T11:45:06.274Z,20.44
2018-04-07T11:46:05.840Z,20.50
2018-04-07T11:47:06.603Z,20.50
2018-04-07T11:48:06.265Z,20.50
2018-04-07T11:49:05.913Z,20.56
2018-04-07T11:50:06.240Z,20.56
2018-04-07T11:51:06.713Z,20.62
2018-04-07T11:52:06.245Z,20.62
2018-04-07T11:53:06.664Z,20.69
2018-04-07T11:54:05.951Z,20.69
2018-04-07T11:55:05.822Z,20.69
2018-04-07T11:56:06.947Z,20.75
2018-04-07T11:57:05.875Z,20.75
2018-04-07T11:58:06.573Z,20.81
2018-04-07T11:59:06.217Z,20.81
2018-04-07T12:00:06.219Z,20.88
2018-04-07T12:01:06.620Z,20.88
2018-04-07T12:02:06.269Z,20.88
2018-04-07T12:03:06.209Z,20.88
2018-04-07T12:04:06.205Z,20.88
2018-04-07T12:05:10.911Z,20.88
2018-04-07T12:06:06.639Z,20.94
2018-04-07T12:07:05.957Z,21.00
2018-04-07T12:08:06.369Z,21.00
2018-04-07T12:09:06.738Z,21.06
2018-04-07T12:10:05.915Z,21.06
2018-04-07T12:11:06.236Z,21.12
2018-04-07T12:12:06.674Z,21.12
2018-04-07T12:13:06.698Z,21.19
2018-04-07T12:14:11.341Z,21.19
2018-04-07T12:15:05.905Z,21.25
2018-04-07T12:16:06.569Z,21.25
2018-04-07T12:17:06.256Z,21.25
2018-04-07T12:18:06.646Z,21.31
2018-04-07T12:19:11.086Z,21.31
2018-04-07T12:20:06.242Z,21.38
2018-04-07T12:21:06.331Z,21.38
2018-04-07T12:22:05.830Z,21.44
2018-04-07T12:23:06.303Z,21.50
2018-04-07T12:24:05.987Z,21.50
2018-04-07T12:25:06.739Z,21.56
2018-04-07T12:26:11.237Z,21.62
2018-04-07T12:27:06.375Z,21.62
2018-04-07T12:28:05.909Z,21.62
2018-04-07T12:29:06.357Z,21.69
2018-04-07T12:30:06.668Z,21.69
2018-04-07T12:31:05.908Z,21.69
2018-04-07T12:32:05.906Z,21.69
2018-04-07T12:33:06.681Z,21.69
2018-04-07T12:34:06.560Z,21.75
2018-04-07T12:35:06.662Z,21.75
2018-04-07T12:36:05.927Z,21.81
2018-04-07T12:37:06.687Z,21.81
2018-04-07T12:38:05.908Z,21.88
2018-04-07T12:39:11.254Z,21.88
2018-04-07T12:40:06.745Z,21.94
2018-04-07T12:41:07.053Z,21.94
2018-04-07T12:42:05.996Z,21.94
2018-04-07T12:43:10.765Z,22.00
2018-04-07T12:44:06.956Z,22.00
2018-04-07T12:45:06.573Z,22.00
2018-04-07T12:46:06.364Z,22.00
2018-04-07T12:47:05.632Z,22.06
2018-04-07T12:48:06.637Z,22.06
2018-04-07T12:49:06.331Z,22.06
2018-04-07T12:50:07.248Z,22.06
2018-04-07T12:51:06.635Z,22.06
2018-04-07T12:52:06.251Z,22.06
2018-04-07T12:53:06.404Z,22.06
2018-04-07T12:54:06.281Z,22.06
2018-04-07T12:55:06.727Z,22.06
2018-04-07T12:56:06.008Z,22.06
2018-04-07T12:57:07.082Z,22.06
2018-04-07T12:58:06.313Z,22.06
2018-04-07T12:59:06.334Z,22.12
2018-04-07T13:00:06.633Z,22.06
2018-04-07T13:01:05.891Z,22.06
2018-04-07T13:02:06.203Z,22.12
2018-04-07T13:03:10.814Z,22.12